createdAt,value
2018-04-01T00:00:55.191Z,11.77
2018-04-01T00:03:22.870Z,11.20
2018-04-01T00:05:50.579Z,10.75
2018-04-01T00:08:19.655Z,11.65
2018-04-01T00:10:47.332Z,10.85
2018-04-01T00:13:15.010Z,10.68
2018-04-01T00:15:43.047Z,10.38
2018-04-01T00:18:12.918Z,10.60
2018-04-01T00:20:40.615Z,10.85
2018-04-01T00:23:08.606Z,9.65
2018-04-01T00:25:36.210Z,11.32
2018-04-01T00:28:03.844Z,11.52
2018-04-01T00:30:33.673Z,10.93
2018-04-01T00:33:02.015Z,11.25
2018-04-01T00:35:29.635Z,10.93
2018-04-01T00:37:57.695Z,11.00
2018-04-01T00:40:26.059Z,10.77
2018-04-01T00:42:53.644Z,10.60
2018-04-01T00:45:21.633Z,11.25
2018-04-01T00:47:49.974Z,10.30
2018-04-01T00:50:20.395Z,8.75
2018-04-01T00:52:49.217Z,10.07
2018-04-01T00:55:17.588Z,11.73
2018-04-01T00:57:45.214Z,11.30
2018-04-01T01:00:13.231Z,12.13
2018-04-01T01:02:40.844Z,10.48
2018-04-01T01:05:08.452Z,12.07
2018-04-01T01:07:37.352Z,13.00
2018-04-01T01:10:05.005Z,12.65
2018-04-01T01:12:32.612Z,10.68
2018-04-01T01:15:01.802Z,11.15
2018-04-01T01:17:29.427Z,9.65
2018-04-01T01:19:58.416Z,10.93
2018-04-01T01:22:27.167Z,10.88
2018-04-01T01:24:55.511Z,10.18
2018-04-01T01:27:23.119Z,10.82
2018-04-01T01:29:51.547Z,10.57
2018-04-01T01:32:19.149Z,10.32
2018-04-01T01:34:46.749Z,9.23
2018-04-01T01:37:14.351Z,12.15
2018-04-01T01:39:42.749Z,8.90
2018-04-01T01:42:10.354Z,19.67
2018-04-01T01:44:38.739Z,11.90
2018-04-01T01:47:07.489Z,11.68
2018-04-01T01:49:35.693Z,11.23
2018-04-01T01:52:04.054Z,11.12
2018-04-01T01:54:34.326Z,7.93
2018-04-01T01:57:01.983Z,9.40
2018-04-01T01:59:30.376Z,8.68
2018-04-01T02:01:58.970Z,8.25
2018-04-01T02:04:26.560Z,8.95
2018-04-01T02:06:54.152Z,8.13
2018-04-01T02:09:22.607Z,9.10
2018-04-01T02:11:50.238Z,8.52
2018-04-01T02:14:18.642Z,8.18
2018-04-01T02:16:46.974Z,10.77
2018-04-01T02:19:14.576Z,10.85
2018-04-01T02:21:43.333Z,7.90
2018-04-01T02:24:11.396Z,6.75
2018-04-01T02:26:38.984Z,6.03
2018-04-01T02:29:06.577Z,6.00
2018-04-01T02:31:35.449Z,6.10
2018-04-01T02:34:02.987Z,6.10
2018-04-01T02:36:30.607Z,5.85
2018-04-01T02:38:59.042Z,6.40
2018-04-01T02:41:26.637Z,5.40
2018-04-01T02:43:54.987Z,5.53
2018-04-01T02:46:23.279Z,5.45
2018-04-01T02:48:50.855Z,5.80
2018-04-01T02:51:19.217Z,4.70
2018-04-01T02:53:47.240Z,4.35
2018-04-01T02:56:14.831Z,6.90
2018-04-01T02:58:42.417Z,5.10
2018-04-01T03:01:11.114Z,5.60
2018-04-01T03:03:38.724Z,5.90
2018-04-01T03:06:06.297Z,6.10
2018-04-01T03:08:35.143Z,6.07
2018-04-01T03:11:02.790Z,7.15
2018-04-01T03:13:30.366Z,9.43
2018-04-01T03:16:00.107Z,8.20
2018-04-01T03:18:27.685Z,8.95
2018-04-01T03:20:56.038Z,11.07
2018-04-01T03:23:24.283Z,9.00
2018-04-01T03:25:53.338Z,11.12
2018-04-01T03:28:21.689Z,9.43
2018-04-01T03:30:49.304Z,10.00
2018-04-01T03:33:17.269Z,11.18
2018-04-01T03:35:45.635Z,9.07
2018-04-01T03:38:14.009Z,10.68
2018-04-01T03:40:41.992Z,9.85
2018-04-01T03:43:10.344Z,10.05
2018-04-01T03:45:37.949Z,9.63
2018-04-01T03:48:07.652Z,9.23
2018-04-01T03:50:35.244Z,12.85
2018-04-01T03:53:02.830Z,9.10
2018-04-01T03:55:31.227Z,12.57
2018-04-01T03:57:58.844Z,9.40
2018-04-01T04:00:27.223Z,9.20
2018-04-01T04:02:55.446Z,10.23
2018-04-01T04:05:23.312Z,11.32
2018-04-01T04:07:50.915Z,11.88
2018-04-01T04:10:18.921Z,12.88
2018-04-01T04:12:47.256Z,10.10
2018-04-01T04:15:14.839Z,12.00
2018-04-01T04:17:43.547Z,10.77
2018-04-01T04:20:11.133Z,10.57
2018-04-01T04:22:38.721Z,11.00
2018-04-01T04:25:08.795Z,10.40
2018-04-01T04:27:36.394Z,11.00
2018-04-01T04:30:04.046Z,10.60
2018-04-01T04:32:32.096Z,11.48
2018-04-01T04:34:59.664Z,12.10
2018-04-01T04:37:27.490Z,12.02
2018-04-01T04:39:55.817Z,11.50
2018-04-01T04:42:23.406Z,10.50
2018-04-01T04:44:51.773Z,10.55
2018-04-01T04:47:20.534Z,11.48
2018-04-01T04:49:48.135Z,9.10
2018-04-01T04:52:16.488Z,12.00
2018-04-01T04:54:44.772Z,11.50
2018-04-01T04:57:12.367Z,10.05
2018-04-01T04:59:39.961Z,11.95
2018-04-01T05:02:08.004Z,11.40
2018-04-01T05:04:36.358Z,13.55
2018-04-01T05:07:03.947Z,12.05
2018-04-01T05:09:33.462Z,13.55
2018-04-01T05:12:01.086Z,11.60
2018-04-01T05:14:28.659Z,10.73
2018-04-01T05:16:58.021Z,10.95
2018-04-01T05:19:25.604Z,12.57
2018-04-01T05:21:53.245Z,11.32
2018-04-01T05:24:22.310Z,11.40
2018-04-01T05:26:51.271Z,11.57
2018-04-01T05:29:18.967Z,12.37
2018-04-01T05:31:47.048Z,13.70
2018-04-01T05:34:14.667Z,9.63
2018-04-01T05:36:42.264Z,9.57
2018-04-01T05:39:11.274Z,9.68
2018-04-01T05:41:38.890Z,9.30
2018-04-01T05:44:06.632Z,8.15
2018-04-01T05:46:35.087Z,7.70
2018-04-01T05:49:02.747Z,7.12
2018-04-01T05:51:30.411Z,7.40
2018-04-01T05:53:58.725Z,5.18
2018-04-01T05:56:26.982Z,6.05
2018-04-01T05:58:54.642Z,5.78
2018-04-01T06:01:22.257Z,6.05
2018-04-01T06:03:50.735Z,5.90
2018-04-01T06:06:18.345Z,5.30
2018-04-01T06:08:45.932Z,5.37
2018-04-01T06:11:14.461Z,5.37
2018-04-01T06:13:42.808Z,4.78
2018-04-01T06:16:10.384Z,5.53
2018-04-01T06:18:38.666Z,5.28
2018-04-01T06:21:06.251Z,4.78
2018-04-01T06:23:34.608Z,5.22
2018-04-01T06:26:03.084Z,4.80
2018-04-01T06:28:32.748Z,5.40
2018-04-01T06:31:00.432Z,6.70
2018-04-01T06:33:28.918Z,5.75
2018-04-01T06:35:56.492Z,5.68
2018-04-01T06:38:24.098Z,5.95
2018-04-01T06:40:52.361Z,7.87
2018-04-01T06:43:19.938Z,6.05
2018-04-01T06:45:47.520Z,6.30
2018-04-01T06:48:16.596Z,5.95
2018-04-01T06:50:44.286Z,6.47
2018-04-01T06:53:11.850Z,5.70
2018-04-01T06:55:40.518Z,6.40
2018-04-01T06:58:08.092Z,5.25
2018-04-01T07:00:35.699Z,4.95
2018-04-01T07:03:04.179Z,5.30
2018-04-01T07:05:31.798Z,5.93
2018-04-01T07:07:59.582Z,4.65
2018-04-01T07:10:29.003Z,4.05
2018-04-01T07:12:56.746Z,4.97
2018-04-01T07:15:24.351Z,3.87
2018-04-01T07:17:52.382Z,4.03
2018-04-01T07:20:20.160Z,4.55
2018-04-01T07:22:49.528Z,4.22
2018-04-01T07:25:18.081Z,5.45
2018-04-01T07:27:46.560Z,4.60
2018-04-01T07:30:16.628Z,4.12
2018-04-01T07:32:45.340Z,4.65
2018-04-01T07:35:13.068Z,3.45
2018-04-01T07:37:41.394Z,7.45
2018-04-01T07:40:10.424Z,4.00
2018-04-01T07:42:38.253Z,4.28
2018-04-01T07:45:07.579Z,6.05
2018-04-01T07:47:38.180Z,3.78
2018-04-01T07:50:08.199Z,3.03
2018-04-01T07:52:35.967Z,3.75
2018-04-01T07:55:05.173Z,4.68
2018-04-01T07:57:32.782Z,3.33
2018-04-01T08:00:00.505Z,4.35
2018-04-01T08:02:29.334Z,4.65
2018-04-01T08:04:57.144Z,4.30
2018-04-01T08:07:24.811Z,4.12
2018-04-01T08:09:53.170Z,3.00
2018-04-01T08:12:20.838Z,3.45
2018-04-01T08:14:48.503Z,4.45
2018-04-01T08:17:19.460Z,4.12
2018-04-01T08:19:49.562Z,4.68
2018-04-01T08:22:17.408Z,4.55
2018-04-01T08:24:47.006Z,4.95
2018-04-01T08:27:14.685Z,3.80
2018-04-01T08:29:42.299Z,4.43
2018-04-01T08:32:13.071Z,4.90
2018-04-01T08:34:41.467Z,5.03
2018-04-01T08:37:10.134Z,5.28
2018-04-01T08:39:38.274Z,5.50
2018-04-01T08:42:06.635Z,5.20
2018-04-01T08:44:34.266Z,5.10
2018-04-01T08:47:02.515Z,5.50
2018-04-01T08:49:30.130Z,5.22
2018-04-01T08:51:57.706Z,5.70
2018-04-01T08:54:26.143Z,4.60
2018-04-01T08:56:54.493Z,4.40
2018-04-01T08:59:22.125Z,5.20
2018-04-01T09:01:50.156Z,5.10
2018-04-01T09:04:18.555Z,4.35
2018-04-01T09:06:46.163Z,4.05
2018-04-01T09:09:14.536Z,4.70
2018-04-01T09:11:42.123Z,4.65
2018-04-01T09:14:09.726Z,4.13
2018-04-01T09:16:38.924Z,4.33
2018-04-01T09:19:07.281Z,3.57
2018-04-01T09:21:34.937Z,4.10
2018-04-01T09:24:02.894Z,3.53
2018-04-01T09:26:30.520Z,4.10
2018-04-01T09:28:58.156Z,3.93
2018-04-01T09:31:26.403Z,3.90
2018-04-01T09:33:55.511Z,3.90
2018-04-01T09:36:23.862Z,3.90
2018-04-01T09:38:52.307Z,4.07
2018-04-01T09:41:19.905Z,3.50
2018-04-01T09:43:47.495Z,4.40
2018-04-01T09:46:15.506Z,3.90
2018-04-01T09:48:43.111Z,3.70
2018-04-01T09:51:10.721Z,4.37
2018-04-01T09:53:38.912Z,3.80
2018-04-01T09:56:06.510Z,3.73
2018-04-01T09:58:34.865Z,4.23
2018-04-01T10:01:04.371Z,3.30
2018-04-01T10:03:32.482Z,3.63
2018-04-01T10:06:01.325Z,3.10
2018-04-01T10:08:30.776Z,3.70
2018-04-01T10:10:59.102Z,3.60
2018-04-01T10:13:28.187Z,3.17
2018-04-01T10:15:57.160Z,3.27
2018-04-01T10:18:25.465Z,3.80
2018-04-01T10:20:53.802Z,3.03
2018-04-01T10:23:23.201Z,3.70
2018-04-01T10:25:51.522Z,3.17
2018-04-01T10:28:19.837Z,3.37
2018-04-01T10:30:48.822Z,3.33
2018-04-01T10:33:17.384Z,3.77
2018-04-01T10:35:47.028Z,3.20
2018-04-01T10:38:16.046Z,3.10
2018-04-01T10:40:44.402Z,3.57
2018-04-01T10:43:13.119Z,3.40
2018-04-01T10:45:45.273Z,3.50
2018-04-01T10:48:14.373Z,3.57
2018-04-01T10:50:42.688Z,3.27
2018-04-01T10:53:11.859Z,2.97
2018-04-01T10:55:40.450Z,3.90
2018-04-01T10:58:08.896Z,3.60
2018-04-01T11:00:37.317Z,3.13
2018-04-01T11:03:04.930Z,2.53
2018-04-01T11:05:33.301Z,3.20
2018-04-01T11:08:02.072Z,3.37
2018-04-01T11:10:29.646Z,3.57
2018-04-01T11:12:57.218Z,2.53
2018-04-01T11:15:26.283Z,3.57
2018-04-01T11:17:54.637Z,2.60
2018-04-01T11:20:22.217Z,2.30
2018-04-01T11:22:50.193Z,2.20
2018-04-01T11:25:17.770Z,2.37
2018-04-01T11:27:45.341Z,2.53
2018-04-01T11:30:14.044Z,2.50
2018-04-01T11:32:42.425Z,2.60
2018-04-01T11:35:10.006Z,2.50
2018-04-01T11:37:39.586Z,2.80
2018-04-01T11:40:07.176Z,2.43
2018-04-01T11:42:34.789Z,2.50
2018-04-01T11:45:02.866Z,2.70
2018-04-01T11:47:30.452Z,2.47
2018-04-01T11:49:58.041Z,2.30
2018-04-01T11:52:26.513Z,2.70
2018-04-01T11:54:54.137Z,2.93
2018-04-01T11:57:21.764Z,2.70
2018-04-01T11:59:50.504Z,2.50
2018-04-01T12:02:18.114Z,2.50
2018-04-01T12:04:45.713Z,2.37
2018-04-01T12:07:14.718Z,2.80
2018-04-01T12:09:42.343Z,2.63
2018-04-01T12:12:09.916Z,2.90
2018-04-01T12:14:38.178Z,2.53
2018-04-01T12:17:05.779Z,2.67
2018-04-01T12:19:34.179Z,2.93
2018-04-01T12:22:02.644Z,2.80
2018-04-01T12:24:30.246Z,2.90
2018-04-01T12:26:57.814Z,2.47
2018-04-01T12:29:25.849Z,2.50
2018-04-01T12:31:54.190Z,2.57
2018-04-01T12:34:21.774Z,2.20
2018-04-01T12:36:51.919Z,2.23
2018-04-01T12:39:21.083Z,2.17
2018-04-01T12:41:48.695Z,2.65
2018-04-01T12:44:16.765Z,2.53
2018-04-01T12:46:45.157Z,2.47
2018-04-01T12:49:12.872Z,2.83
2018-04-01T12:51:41.083Z,2.60
2018-04-01T12:54:09.473Z,2.53
2018-04-01T12:56:37.085Z,2.33
2018-04-01T12:59:05.522Z,2.10
2018-04-01T13:01:33.916Z,2.13
2018-04-01T13:04:02.262Z,3.67
2018-04-01T13:06:30.489Z,2.50
2018-04-01T13:08:58.098Z,2.30
2018-04-01T13:11:25.702Z,2.40
2018-04-01T13:13:54.717Z,2.83
2018-04-01T13:16:22.325Z,2.62
2018-04-01T13:18:49.947Z,2.40
2018-04-01T13:21:18.646Z,2.60
2018-04-01T13:23:46.243Z,2.40
2018-04-01T13:26:13.897Z,2.83
2018-04-01T13:28:41.496Z,2.78
2018-04-01T13:31:10.265Z,2.63
2018-04-01T13:33:37.857Z,3.10
2018-04-01T13:36:05.461Z,3.20
2018-04-01T13:38:34.444Z,2.70
2018-04-01T13:41:03.448Z,3.03
2018-04-01T13:43:31.035Z,3.13
2018-04-01T13:45:59.152Z,6.50
2018-04-01T13:48:26.764Z,2.90
2018-04-01T13:50:55.115Z,3.43
2018-04-01T13:53:23.816Z,2.93
2018-04-01T13:55:52.179Z,2.77
2018-04-01T13:58:19.814Z,4.03
2018-04-01T14:00:48.491Z,2.57
2018-04-01T14:03:16.079Z,3.00
2018-04-01T14:05:43.657Z,2.50
2018-04-01T14:08:11.281Z,3.40
2018-04-01T14:10:39.732Z,2.90
2018-04-01T14:13:07.340Z,2.70
2018-04-01T14:15:34.920Z,2.87
2018-04-01T14:18:03.211Z,2.97
2018-04-01T14:20:30.815Z,5.40
2018-04-01T14:22:58.403Z,3.07
2018-04-01T14:25:27.361Z,2.87
2018-04-01T14:27:54.995Z,2.60
2018-04-01T14:30:22.583Z,3.17
2018-04-01T14:32:50.194Z,3.40
2018-04-01T14:35:19.061Z,3.37
2018-04-01T14:37:47.440Z,3.33
2018-04-01T14:40:15.874Z,3.30
2018-04-01T14:42:44.920Z,5.73
2018-04-01T14:45:12.546Z,4.00
2018-04-01T14:47:40.185Z,5.13
2018-04-01T14:50:08.565Z,2.90
2018-04-01T14:52:36.907Z,3.70
2018-04-01T14:55:04.726Z,4.93
2018-04-01T14:57:33.188Z,3.83
2018-04-01T15:00:00.819Z,3.40
2018-04-01T15:02:28.400Z,3.87
2018-04-01T15:04:56.870Z,4.50
2018-04-01T15:07:24.473Z,4.50
2018-04-01T15:09:52.130Z,6.30
2018-04-01T15:12:20.439Z,9.35
2018-04-01T15:14:48.798Z,4.18
2018-04-01T15:17:17.154Z,5.35
2018-04-01T15:19:45.237Z,5.05
2018-04-01T15:22:12.852Z,4.95
2018-04-01T15:24:40.444Z,5.35
2018-04-01T15:27:08.033Z,5.15
2018-04-01T15:29:36.896Z,4.95
2018-04-01T15:32:04.456Z,5.35
2018-04-01T15:34:32.094Z,4.43
2018-04-01T15:37:00.835Z,5.47
2018-04-01T15:39:28.414Z,4.78
2018-04-01T15:41:56.077Z,4.35
2018-04-01T15:44:25.685Z,4.10
2018-04-01T15:46:53.263Z,4.70
2018-04-01T15:49:20.898Z,4.60
2018-04-01T15:51:50.378Z,5.22
2018-04-01T15:54:18.738Z,5.87
2018-04-01T15:56:47.133Z,4.62
2018-04-01T15:59:15.898Z,7.03
2018-04-01T16:01:43.529Z,6.12
2018-04-01T16:04:11.160Z,5.72
2018-04-01T16:06:40.467Z,7.43
2018-04-01T16:09:08.805Z,9.27
2018-04-01T16:11:36.398Z,6.80
2018-04-01T16:14:04.783Z,5.15
2018-04-01T16:16:32.354Z,5.72
2018-04-01T16:19:00.441Z,7.10
2018-04-01T16:21:28.059Z,5.55
2018-04-01T16:23:56.774Z,4.95
2018-04-01T16:26:24.639Z,7.28
2018-04-01T16:28:52.248Z,8.30
2018-04-01T16:31:21.649Z,5.37
2018-04-01T16:33:49.261Z,7.20
2018-04-01T16:36:16.882Z,6.32
2018-04-01T16:38:46.147Z,7.47
2018-04-01T16:41:13.739Z,6.07
2018-04-01T16:43:45.232Z,10.32
2018-04-01T16:46:15.705Z,7.03
2018-04-01T16:48:44.095Z,5.78
2018-04-01T16:51:11.923Z,7.22
2018-04-01T16:53:40.923Z,5.25
2018-04-01T16:56:08.869Z,5.05
2018-04-01T16:58:36.496Z,5.40
2018-04-01T17:01:05.053Z,5.15
2018-04-01T17:03:33.158Z,5.35
2018-04-01T17:06:04.753Z,4.78
2018-04-01T17:08:34.430Z,4.65
2018-04-01T17:11:04.625Z,5.20
2018-04-01T17:13:37.035Z,4.37
2018-04-01T17:16:05.808Z,5.47
2018-04-01T17:18:35.898Z,5.25
2018-04-01T17:21:04.879Z,4.37
2018-04-01T17:23:33.699Z,5.57
2018-04-01T17:26:03.289Z,3.97
2018-04-01T17:28:32.089Z,5.75
2018-04-01T17:30:59.819Z,5.70
2018-04-01T17:33:28.602Z,5.60
2018-04-01T17:35:57.701Z,6.03
2018-04-01T17:38:25.317Z,3.87
2018-04-01T17:40:52.908Z,7.55
2018-04-01T17:43:20.893Z,6.45
2018-04-01T17:45:50.115Z,6.43
2018-04-01T17:48:20.808Z,6.93
2018-04-01T17:50:49.339Z,6.00
2018-04-01T17:53:17.507Z,8.40
2018-04-01T17:55:45.118Z,6.53
2018-04-01T17:58:13.302Z,5.70
2018-04-01T18:00:42.078Z,5.97
2018-04-01T18:03:10.032Z,8.13
2018-04-01T18:05:38.851Z,8.20
2018-04-01T18:08:07.069Z,6.07
2018-04-01T18:10:34.688Z,10.27
2018-04-01T18:13:02.977Z,8.10
2018-04-01T18:15:32.125Z,6.53
2018-04-01T18:18:02.751Z,7.60
2018-04-01T18:20:30.438Z,5.37
2018-04-01T18:22:59.003Z,5.45
2018-04-01T18:25:27.058Z,5.43
2018-04-01T18:27:55.650Z,6.53
2018-04-01T18:30:24.467Z,5.37
2018-04-01T18:32:52.175Z,4.78
2018-04-01T18:35:19.880Z,6.05
2018-04-01T18:37:48.012Z,5.95
2018-04-01T18:40:16.460Z,4.75
2018-04-01T18:42:44.658Z,7.68
2018-04-01T18:45:14.172Z,5.45
2018-04-01T18:47:41.758Z,4.62
2018-04-01T18:50:11.026Z,4.47
2018-04-01T18:52:39.488Z,6.37
2018-04-01T18:55:07.083Z,6.32
2018-04-01T18:57:35.465Z,6.93
2018-04-01T19:00:04.840Z,6.53
2018-04-01T19:02:32.530Z,5.70
2018-04-01T19:05:00.347Z,7.85
2018-04-01T19:07:28.502Z,5.28
2018-04-01T19:09:58.194Z,5.12
2018-04-01T19:12:26.637Z,7.57
2018-04-01T19:14:54.856Z,7.40
2018-04-01T19:17:22.966Z,5.70
2018-04-01T19:19:51.298Z,6.20
2018-04-01T19:22:20.893Z,4.87
2018-04-01T19:24:49.210Z,7.20
2018-04-01T19:27:18.293Z,10.75
2018-04-01T19:29:48.865Z,7.12
2018-04-01T19:32:18.214Z,7.60
2018-04-01T19:34:47.304Z,14.10
2018-04-01T19:37:16.052Z,20.02
2018-04-01T19:39:45.048Z,13.00
2018-04-01T19:42:13.426Z,11.60
2018-04-01T19:44:42.634Z,10.95
2018-04-01T19:47:11.843Z,10.90
2018-04-01T19:49:43.015Z,10.75
2018-04-01T19:52:14.500Z,9.65
2018-04-01T19:54:42.958Z,11.43
2018-04-01T19:57:11.956Z,14.23
2018-04-01T19:59:41.858Z,8.65
2018-04-01T20:02:10.460Z,9.70
2018-04-01T20:04:38.892Z,8.70
2018-04-01T20:07:08.632Z,11.68
2018-04-01T20:09:37.228Z,11.30
2018-04-01T20:12:05.648Z,14.65
2018-04-01T20:14:35.340Z,12.13
2018-04-01T20:17:04.659Z,9.48
2018-04-01T20:19:33.981Z,11.65
2018-04-01T20:22:03.772Z,13.77
2018-04-01T20:24:33.025Z,23.38
2018-04-01T20:27:02.312Z,15.63
2018-04-01T20:29:31.088Z,16.40
2018-04-01T20:31:59.891Z,14.38
2018-04-01T20:34:28.222Z,17.60
2018-04-01T20:36:57.016Z,14.45
2018-04-01T20:39:25.600Z,16.60
2018-04-01T20:41:54.033Z,18.67
2018-04-01T20:44:22.589Z,10.50
2018-04-01T20:46:52.151Z,9.70
2018-04-01T20:49:21.662Z,12.37
2018-04-01T20:51:50.419Z,15.30
2018-04-01T20:54:21.706Z,14.50
2018-04-01T20:56:50.274Z,10.15
2018-04-01T20:59:19.511Z,13.05
2018-04-01T21:01:50.118Z,10.25
2018-04-01T21:04:20.515Z,10.90
2018-04-01T21:06:50.253Z,10.55
2018-04-01T21:09:18.839Z,11.90
2018-04-01T21:11:47.598Z,10.38
2018-04-01T21:14:17.775Z,9.10
2018-04-01T21:16:46.092Z,12.30
2018-04-01T21:19:14.547Z,12.55
2018-04-01T21:21:43.851Z,9.68
2018-04-01T21:24:13.583Z,8.85
2018-04-01T21:26:41.997Z,10.15
2018-04-01T21:29:11.569Z,14.00
2018-04-01T21:31:40.821Z,9.60
2018-04-01T21:34:09.946Z,8.60
2018-04-01T21:36:40.190Z,8.55
2018-04-01T21:39:08.783Z,9.07
2018-04-01T21:41:37.129Z,7.70
2018-04-01T21:44:06.272Z,9.15
2018-04-01T21:46:35.657Z,12.18
2018-04-01T21:49:04.331Z,8.93
2018-04-01T21:51:33.560Z,10.48
2018-04-01T21:54:03.216Z,10.15
2018-04-01T21:56:33.455Z,10.25
2018-04-01T21:59:02.610Z,11.00
2018-04-01T22:01:31.941Z,10.13
2018-04-01T22:04:01.711Z,12.88
2018-04-01T22:06:34.287Z,13.75
2018-04-01T22:09:03.935Z,9.43
2018-04-01T22:11:33.318Z,10.23
2018-04-01T22:14:02.275Z,10.23
2018-04-01T22:16:31.376Z,8.50
2018-04-01T22:18:59.771Z,11.40
2018-04-01T22:21:29.136Z,11.65
2018-04-01T22:23:58.321Z,11.52
2018-04-01T22:26:27.627Z,8.63
2018-04-01T22:28:57.023Z,8.73
2018-04-01T22:31:27.250Z,12.23
2018-04-01T22:33:55.609Z,9.35
2018-04-01T22:36:24.713Z,12.20
2018-04-01T22:38:53.618Z,15.85
2018-04-01T22:41:22.741Z,12.18
2018-04-01T22:43:51.058Z,9.35
2018-04-01T22:46:20.027Z,14.85
2018-04-01T22:48:48.336Z,9.40
2018-04-01T22:51:16.662Z,9.02
2018-04-01T22:53:45.903Z,12.20
2018-04-01T22:56:14.202Z,12.23
2018-04-01T22:58:44.088Z,8.82
2018-04-01T23:01:13.605Z,8.30
2018-04-01T23:03:44.004Z,10.05
2018-04-01T23:06:13.830Z,9.95
2018-04-01T23:08:42.139Z,11.90
2018-04-01T23:11:10.519Z,8.75
2018-04-01T23:13:39.573Z,8.15
2018-04-01T23:16:08.679Z,10.43
2018-04-01T23:18:37.759Z,8.55
2018-04-01T23:21:07.677Z,9.55
2018-04-01T23:23:36.808Z,14.57
2018-04-01T23:26:05.888Z,11.43
2018-04-01T23:28:35.103Z,7.30
2018-04-01T23:31:04.203Z,11.82
2018-04-01T23:33:32.566Z,7.95
2018-04-01T23:36:01.403Z,9.77
2018-04-01T23:38:29.738Z,9.95
2018-04-01T23:40:58.065Z,8.80
2018-04-01T23:43:27.128Z,10.65
2018-04-01T23:45:56.212Z,10.73
2018-04-01T23:48:24.533Z,11.20
2018-04-01T23:50:54.653Z,11.90
2018-04-01T23:53:23.742Z,8.95
2018-04-01T23:55:52.842Z,9.75
2018-04-01T23:58:23.111Z,6.37
